Station Historical Data
Daily Summary for January 15, 2018 Units:  Metric    English   Both
« Previous Day
Next Day »
Daily Weekly Monthly Yearly Custom
  High: Low: Average:
Temperature: -5.2 °C -15 °C -9.6 °C
Dew Point: -8.5 °C -18 °C -13.4 °C
Humidity: 87% 51% 74%
Wind Speed: 12.9km/h 0km/h 2.6km/h
Wind Gust: 16.1km/h - -
Wind- - East
Pressure: 1039.5 hPa 1028 hPa -
Precipitation: 0 mm    
Historical Graphs
 
 
Tabular Data for January 15, 2018
Time Temperature Dew Point Pressure Wind Wind Speed Wind Gust Humidity Rainfall Rate (Hourly)
00:04 -14.3 °C -17.2 °C 1039.5 hPa Calm     79% 0 mm
00:09 -14.4 °C -17.2 °C 1039.2 hPa Calm     79% 0 mm
00:24 -14.4 °C -17.3 °C 1038.8 hPa Calm     79% 0 mm
00:29 -14.4 °C -17.3 °C 1039.2 hPa Calm     79% 0 mm
00:34 -14.4 °C -17.3 °C 1039.2 hPa Calm     79% 0 mm
00:39 -14.6 °C -17.4 °C 1039.2 hPa Calm     79% 0 mm
00:44 -14.6 °C -17.4 °C 1038.8 hPa Calm     79% 0 mm
00:49 -14.6 °C -17.4 °C 1038.8 hPa SE 1.6 km/h 6.4 km/h 79% 0 mm
00:54 -14.5 °C -17.3 °C 1038.8 hPa SE 1.6 km/h 6.4 km/h 79% 0 mm
00:59 -14.4 °C -17.3 °C 1038.8 hPa SE 1.6 km/h 6.4 km/h 79% 0 mm
01:04 -14.4 °C -17.3 °C 1038.8 hPa SE 1.6 km/h 3.2 km/h 79% 0 mm
01:09 -14.6 °C -17.4 °C 1038.8 hPa Calm   3.2 km/h 79% 0 mm
01:14 -14.6 °C -17.4 °C 1038.8 hPa ESE 1.6 km/h 4.8 km/h 79% 0 mm
01:19 -14.6 °C -17.4 °C 1038.8 hPa Calm   4.8 km/h 79% 0 mm
01:24 -14.6 °C -17.6 °C 1038.8 hPa Calm   4.8 km/h 78% 0 mm
01:29 -14.6 °C -17.4 °C 1038.5 hPa Calm   4.8 km/h 79% 0 mm
01:34 -14.6 °C -17.6 °C 1038.5 hPa Calm     78% 0 mm
01:39 -14.6 °C -17.6 °C 1038.5 hPa Calm     78% 0 mm
01:44 -14.6 °C -17.6 °C 1038.5 hPa Calm     78% 0 mm
01:49 -14.6 °C -17.6 °C 1038.5 hPa Calm     78% 0 mm
01:54 -14.7 °C -17.7 °C 1038.5 hPa Calm     78% 0 mm
01:59 -14.6 °C -17.6 °C 1038.5 hPa Calm     78% 0 mm
02:04 -14.6 °C -17.4 °C 1038.5 hPa Calm   6.4 km/h 79% 0 mm
02:09 -14.5 °C -17.5 °C 1038.5 hPa ESE 1.6 km/h 6.4 km/h 78% 0 mm
02:14 -14.5 °C -17.5 °C 1038.1 hPa ESE 1.6 km/h 4.8 km/h 78% 0 mm
02:19 -14.7 °C -17.7 °C 1038.1 hPa Calm   1.6 km/h 78% 0 mm
02:24 -14.9 °C -17.9 °C 1038.1 hPa Calm     78% 0 mm
02:29 -14.9 °C -17.9 °C 1038.1 hPa Calm     78% 0 mm
02:34 -15 °C -18 °C 1038.1 hPa Calm     78% 0 mm
02:39 -14.9 °C -17.7 °C 1038.1 hPa Calm   6.4 km/h 79% 0 mm
02:44 -14.6 °C -17.4 °C 1038.1 hPa ESE 1.6 km/h 6.4 km/h 79% 0 mm
02:49 -14.3 °C -17.1 °C 1037.8 hPa ESE 3.2 km/h 6.4 km/h 79% 0 mm
02:54 -14.1 °C -17.1 °C 1037.8 hPa East 1.6 km/h 8 km/h 78% 0 mm
02:59 -13.8 °C -16.8 °C 1037.8 hPa East 8 km/h 9.7 km/h 78% 0 mm
03:04 -13.8 °C -16.9 °C 1037.5 hPa East 4.8 km/h 9.7 km/h 77% 0 mm
03:09 -13.7 °C -17 °C 1037.5 hPa ENE 4.8 km/h 9.7 km/h 76% 0 mm
03:14 -13.8 °C -17.1 °C 1037.5 hPa ENE 3.2 km/h 11.3 km/h 76% 0 mm
03:19 -13.8 °C -17.2 °C 1037.5 hPa NE 4.8 km/h 11.3 km/h 76% 0 mm
03:24 -14.1 °C -17.5 °C 1037.5 hPa NE 3.2 km/h 8 km/h 75% 0 mm
03:29 -14.2 °C -17.6 °C 1037.1 hPa NE 3.2 km/h 8 km/h 76% 0 mm
03:34 -14.3 °C -17.6 °C 1037.1 hPa NE 3.2 km/h 8 km/h 76% 0 mm
03:39 -14.4 °C -17.7 °C 1037.1 hPa Calm   11.3 km/h 76% 0 mm
03:44 -14.4 °C -17.7 °C 1037.1 hPa ENE 3.2 km/h 11.3 km/h 76% 0 mm
03:49 -14.4 °C -17.7 °C 1037.1 hPa ENE 3.2 km/h 6.4 km/h 76% 0 mm
03:54 -14.4 °C -17.7 °C 1036.8 hPa ENE 1.6 km/h 4.8 km/h 76% 0 mm
03:59 -14.2 °C -17.6 °C 1036.8 hPa ENE 1.6 km/h 8 km/h 76% 0 mm
04:04 -14 °C -17.3 °C 1037.1 hPa ENE 3.2 km/h 8 km/h 76% 0 mm
04:09 -13.8 °C -17.2 °C 1037.1 hPa ENE 3.2 km/h 11.3 km/h 76% 0 mm
04:14 -13.7 °C -17 °C 1036.8 hPa ENE 3.2 km/h 12.9 km/h 76% 0 mm
04:19 -13.5 °C -17 °C 1037.1 hPa ENE 4.8 km/h 12.9 km/h 75% 0 mm
04:24 -13.4 °C -17.1 °C 1036.8 hPa East 3.2 km/h 11.3 km/h 74% 0 mm
04:29 -13.4 °C -17.1 °C 1036.8 hPa East 3.2 km/h 8 km/h 74% 0 mm
04:34 -13.4 °C -17.3 °C 1036.8 hPa East 1.6 km/h 4.8 km/h 73% 0 mm
04:39 -13.5 °C -17.3 °C 1037.1 hPa NE 4.8 km/h 8 km/h 73% 0 mm
04:49 -13.7 °C -17.4 °C 1036.8 hPa ENE 3.2 km/h 8 km/h 73% 0 mm
04:54 -13.7 °C -17.4 °C 1036.8 hPa ENE 3.2 km/h 9.7 km/h 74% 0 mm
04:59 -13.7 °C -17.4 °C 1036.8 hPa ENE 3.2 km/h 11.3 km/h 74% 0 mm
05:04 -13.8 °C -17.4 °C 1036.8 hPa ENE 3.2 km/h 8 km/h 74% 0 mm
05:09 -13.8 °C -17.4 °C 1036.8 hPa ENE 6.4 km/h 6.4 km/h 74% 0 mm
05:14 -13.8 °C -17.4 °C 1036.8 hPa Calm   8 km/h 74% 0 mm
05:19 -13.8 °C -17.4 °C 1036.5 hPa ENE 1.6 km/h 8 km/h 74% 0 mm
05:24 -13.6 °C -17.3 °C 1036.8 hPa ENE 3.2 km/h 11.3 km/h 74% 0 mm
05:29 -13.5 °C -17.2 °C 1036.5 hPa ENE 4.8 km/h 11.3 km/h 74% 0 mm
05:34 -13.4 °C -17.1 °C 1036.5 hPa East 8 km/h 11.3 km/h 74% 0 mm
05:39 -13.4 °C -17.1 °C 1036.5 hPa East 4.8 km/h 9.7 km/h 74% 0 mm
05:44 -13.4 °C -17.2 °C 1036.5 hPa ENE 8 km/h 11.3 km/h 73% 0 mm
05:49 -13.3 °C -17.2 °C 1036.5 hPa East 1.6 km/h 12.9 km/h 73% 0 mm
05:54 -13.3 °C -17.2 °C 1036.1 hPa ENE 4.8 km/h 12.9 km/h 73% 0 mm
06:04 -13.2 °C -17.2 °C 1036.1 hPa ENE 4.8 km/h 11.3 km/h 72% 0 mm
06:09 -13.2 °C -17.2 °C 1036.1 hPa ENE 3.2 km/h 14.5 km/h 72% 0 mm
06:14 -13.2 °C -17.2 °C 1036.1 hPa NE 1.6 km/h 6.4 km/h 72% 0 mm
06:19 -13.3 °C -17.3 °C 1036.1 hPa NE 3.2 km/h 8 km/h 72% 0 mm
06:24 -13.4 °C -17.3 °C 1036.1 hPa NE 3.2 km/h 8 km/h 73% 0 mm
06:29 -13.5 °C -17.3 °C 1036.1 hPa NE 4.8 km/h 8 km/h 73% 0 mm
06:34 -13.5 °C -17.3 °C 1036.1 hPa NE 3.2 km/h 9.7 km/h 73% 0 mm
06:39 -13.5 °C -17.2 °C 1036.1 hPa NE 3.2 km/h 9.7 km/h 74% 0 mm
06:54 -13.3 °C -17 °C 1036.1 hPa ENE 3.2 km/h 11.3 km/h 74% 0 mm
06:59 -13.3 °C -17 °C 1036.1 hPa East 3.2 km/h 14.5 km/h 74% 0 mm
07:04 -13.3 °C -17 °C 1036.1 hPa East 3.2 km/h 14.5 km/h 74% 0 mm
07:24 -13.3 °C -17.2 °C 1035.8 hPa NE 4.8 km/h 9.7 km/h 73% 0 mm
07:29 -13.4 °C -17.2 °C 1035.8 hPa East 3.2 km/h 11.3 km/h 73% 0 mm
07:34 -13.3 °C -17.2 °C 1035.8 hPa East 3.2 km/h 12.9 km/h 73% 0 mm
07:39 -13.4 °C -17.2 °C 1035.4 hPa East 4.8 km/h 12.9 km/h 73% 0 mm
07:44 -13.4 °C -17.1 °C 1035.4 hPa ENE 4.8 km/h 9.7 km/h 74% 0 mm
07:49 -13.4 °C -17.1 °C 1035.4 hPa ENE 4.8 km/h 9.7 km/h 74% 0 mm
07:54 -13.4 °C -17.1 °C 1035.4 hPa ENE 3.2 km/h 8 km/h 74% 0 mm
07:59 -13.4 °C -17.2 °C 1035.4 hPa ESE 4.8 km/h 11.3 km/h 73% 0 mm
08:04 -13.4 °C -17.1 °C 1035.4 hPa ENE 4.8 km/h 11.3 km/h 74% 0 mm
08:09 -13.4 °C -17.2 °C 1035.4 hPa SE 3.2 km/h 6.4 km/h 73% 0 mm
08:14 -13.3 °C -17.2 °C 1035.4 hPa ENE 3.2 km/h 8 km/h 73% 0 mm
08:19 -13.3 °C -17.1 °C 1035.4 hPa ENE 3.2 km/h 8 km/h 73% 0 mm
08:24 -13.2 °C -17 °C 1035.4 hPa ENE 3.2 km/h 9.7 km/h 73% 0 mm
08:29 -13.1 °C -16.9 °C 1035.4 hPa ENE 3.2 km/h 9.7 km/h 73% 0 mm
08:34 -12.8 °C -16.7 °C 1035.4 hPa East 3.2 km/h 9.7 km/h 73% 0 mm
08:39 -12.7 °C -16.7 °C 1035.1 hPa ENE 4.8 km/h 11.3 km/h 72% 0 mm
08:44 -12.6 °C -16.6 °C 1035.1 hPa ENE 8 km/h 9.7 km/h 72% 0 mm
08:49 -12.5 °C -16.7 °C 1035.1 hPa ENE 4.8 km/h 11.3 km/h 71% 0 mm
08:54 -12.4 °C -16.6 °C 1035.1 hPa ENE 4.8 km/h 9.7 km/h 71% 0 mm
08:59 -12.3 °C -16.5 °C 1035.1 hPa East 3.2 km/h 11.3 km/h 71% 0 mm
09:04 -12.2 °C -16.4 °C 1035.1 hPa ENE 6.4 km/h 9.7 km/h 71% 0 mm
09:09 -12.1 °C -16.3 °C 1035.1 hPa ENE 6.4 km/h 8 km/h 71% 0 mm
09:14 -12 °C -16.2 °C 1035.1 hPa East 8 km/h 9.7 km/h 71% 0 mm
09:19 -11.9 °C -16.3 °C 1035.1 hPa ENE 4.8 km/h 12.9 km/h 70% 0 mm
09:24 -11.8 °C -16.2 °C 1035.1 hPa Calm   8 km/h 70% 0 mm
09:29 -11.7 °C -16.1 °C 1035.1 hPa East 3.2 km/h 8 km/h 70% 0 mm
09:34 -11.4 °C -15.8 °C 1035.1 hPa East 3.2 km/h 8 km/h 70% 0 mm
09:44 -11 °C -15.6 °C 1035.1 hPa ENE 1.6 km/h 6.4 km/h 69% 0 mm
09:49 -10.8 °C -15.4 °C 1034.8 hPa East 4.8 km/h 8 km/h 69% 0 mm
09:54 -10.7 °C -15.5 °C 1034.8 hPa East 3.2 km/h 11.3 km/h 68% 0 mm
09:59 -10.4 °C -15.2 °C 1034.8 hPa ENE 3.2 km/h 8 km/h 68% 0 mm
10:04 -10.1 °C -15 °C 1034.8 hPa ESE 1.6 km/h 9.7 km/h 67% 0 mm
10:14 -9.6 °C -14.9 °C 1034.8 hPa ESE 1.6 km/h 12.9 km/h 65% 0 mm
10:19 -9.3 °C -14.7 °C 1034.4 hPa East 4.8 km/h 9.7 km/h 65% 0 mm
10:24 -9.3 °C -15.1 °C 1034.4 hPa ESE 3.2 km/h 14.5 km/h 63% 0 mm
10:29 -9.2 °C -14.9 °C 1034.4 hPa SE 6.4 km/h 14.5 km/h 63% 0 mm
10:34 -9 °C -14.9 °C 1034.4 hPa SE 6.4 km/h 16.1 km/h 62% 0 mm
10:39 -8.8 °C -14.6 °C 1034.4 hPa SE 4.8 km/h 16.1 km/h 63% 0 mm
10:54 -8.7 °C -14.7 °C 1034.1 hPa East 1.6 km/h 9.7 km/h 62% 0 mm
10:59 -8.4 °C -14.4 °C 1034.1 hPa ESE 4.8 km/h 11.3 km/h 62% 0 mm
11:04 -8.4 °C -14.4 °C 1034.1 hPa SE 4.8 km/h 12.9 km/h 62% 0 mm
11:09 -8.4 °C -14.6 °C 1033.7 hPa ESE 4.8 km/h 12.9 km/h 61% 0 mm
11:14 -8.4 °C -14.6 °C 1033.7 hPa Calm   4.8 km/h 61% 0 mm
11:19 -8.3 °C -14.5 °C 1033.7 hPa ESE 4.8 km/h 8 km/h 61% 0 mm
11:24 -8.2 °C -14.4 °C 1033.4 hPa ESE 1.6 km/h 6.4 km/h 61% 0 mm
11:29 -8.2 °C -14.6 °C 1033.4 hPa Calm   6.4 km/h 60% 0 mm
11:34 -7.9 °C -14.3 °C 1033.4 hPa SE 3.2 km/h 6.4 km/h 60% 0 mm
11:39 -7.7 °C -14.2 °C 1033.4 hPa SE 1.6 km/h 8 km/h 60% 0 mm
11:44 -7.4 °C -14.1 °C 1033.4 hPa SE 1.6 km/h 8 km/h 59% 0 mm
11:49 -7.2 °C -14.1 °C 1033.1 hPa ESE 3.2 km/h 8 km/h 58% 0 mm
11:59 -7.2 °C -14.1 °C 1033.1 hPa East 4.8 km/h 4.8 km/h 58% 0 mm
12:04 -7.1 °C -13.9 °C 1033.1 hPa Calm   8 km/h 58% 0 mm
12:09 -7.1 °C -14.2 °C 1032.7 hPa East 1.6 km/h 8 km/h 57% 0 mm
12:14 -6.8 °C -13.9 °C 1032.7 hPa East 1.6 km/h 4.8 km/h 57% 0 mm
12:19 -6.7 °C -13.8 °C 1032.4 hPa SE 1.6 km/h 8 km/h 57% 0 mm
12:24 -6.6 °C -13.7 °C 1032.4 hPa SE 1.6 km/h 6.4 km/h 57% 0 mm
12:29 -6.6 °C -14.1 °C 1032.1 hPa Calm   3.2 km/h 55% 0 mm
12:44 -6.4 °C -13.7 °C 1031.7 hPa ESE 3.2 km/h 6.4 km/h 56% 0 mm
12:49 -6.4 °C -13.7 °C 1031.7 hPa ESE 1.6 km/h 6.4 km/h 56% 0 mm
12:54 -6.3 °C -13.6 °C 1031.7 hPa ESE 1.6 km/h 3.2 km/h 56% 0 mm
12:59 -6.1 °C -13.7 °C 1031.7 hPa Calm   4.8 km/h 55% 0 mm
13:04 -6.1 °C -13.9 °C 1031.4 hPa ESE 1.6 km/h 4.8 km/h 54% 0 mm
13:09 -5.8 °C -13.2 °C 1031.4 hPa ESE 1.6 km/h 4.8 km/h 56% 0 mm
13:14 -5.7 °C -13.3 °C 1031.4 hPa ESE 1.6 km/h 4.8 km/h 55% 0 mm
13:19 -5.7 °C -13.3 °C 1031 hPa ESE 1.6 km/h 4.8 km/h 55% 0 mm
13:24 -5.7 °C -13.3 °C 1031 hPa ENE 3.2 km/h 6.4 km/h 55% 0 mm
13:29 -5.6 °C -13.4 °C 1031 hPa Calm   4.8 km/h 54% 0 mm
13:34 -5.5 °C -13.6 °C 1031 hPa Calm   1.6 km/h 53% 0 mm
13:39 -5.3 °C -12.9 °C 1031 hPa Calm   1.6 km/h 55% 0 mm
13:44 -5.3 °C -13.2 °C 1031 hPa Calm   3.2 km/h 54% 0 mm
13:49 -5.3 °C -13.8 °C 1031 hPa Calm     51% 0 mm
13:54 -5.2 °C -12.9 °C 1030.7 hPa Calm     55% 0 mm
13:59 -5.3 °C -13.4 °C 1030.7 hPa Calm     53% 0 mm
14:04 -5.4 °C -13.9 °C 1030.7 hPa ENE 1.6 km/h 4.8 km/h 51% 0 mm
14:09 -5.3 °C -12.9 °C 1030.7 hPa ENE 1.6 km/h 8 km/h 55% 0 mm
14:14 -5.3 °C -13.2 °C 1030.7 hPa ESE 3.2 km/h 8 km/h 54% 0 mm
14:19 -5.2 °C -12.4 °C 1031 hPa SE 3.2 km/h 8 km/h 57% 0 mm
14:24 -5.3 °C -12.1 °C 1031 hPa SE 12.9 km/h 12.9 km/h 59% 0 mm
14:29 -5.4 °C -11.6 °C 1030.7 hPa Calm   12.9 km/h 62% 0 mm
14:34 -5.4 °C -11.4 °C 1030.7 hPa SSE 4.8 km/h 8 km/h 63% 0 mm
14:39 -5.7 °C -11.1 °C 1030.7 hPa ESE 3.2 km/h 8 km/h 66% 0 mm
14:44 -5.7 °C -10.8 °C 1030.7 hPa SE 4.8 km/h 8 km/h 67% 0 mm
14:49 -5.5 °C -10.1 °C 1030.7 hPa SSE 6.4 km/h 9.7 km/h 70% 0 mm
14:54 -5.6 °C -9.8 °C 1030.7 hPa SE 4.8 km/h 9.7 km/h 72% 0 mm
14:59 -5.8 °C -9.5 °C 1030.7 hPa SE 4.8 km/h 11.3 km/h 75% 0 mm
15:04 -5.7 °C -9.2 °C 1030.7 hPa SE 4.8 km/h 11.3 km/h 76% 0 mm
15:09 -5.9 °C -9.4 °C 1030.4 hPa SE 3.2 km/h 11.3 km/h 76% 0 mm
15:14 -5.9 °C -9.3 °C 1030.4 hPa SE 4.8 km/h 11.3 km/h 77% 0 mm
15:19 -6.1 °C -9.4 °C 1030.4 hPa SE 3.2 km/h 8 km/h 77% 0 mm
15:24 -6.2 °C -9.4 °C 1030.4 hPa Calm   8 km/h 78% 0 mm
15:34 -6.1 °C -9.3 °C 1030.4 hPa ENE 3.2 km/h 9.7 km/h 78% 0 mm
15:39 -5.9 °C -9.2 °C 1030.4 hPa East 3.2 km/h 9.7 km/h 78% 0 mm
15:49 -6.1 °C -9.3 °C 1030.4 hPa East 4.8 km/h 11.3 km/h 78% 0 mm
15:50 -6.1 °C -9.3 °C 1030.4 hPa East 11.3 km/h 11.3 km/h 78% 0 mm
15:54 -6.1 °C -9.1 °C 1030.4 hPa East 1.6 km/h 12.9 km/h 79% 0 mm
15:55 -6.1 °C -9.1 °C 1030.4 hPa East 3.2 km/h 12.9 km/h 79% 0 mm
16:00 -6.1 °C -9.3 °C 1030 hPa East 4.8 km/h 12.9 km/h 78% 0 mm
16:09 -6.3 °C -9.7 °C 1030 hPa ENE 1.6 km/h 8 km/h 77% 0 mm
16:14 -6.5 °C -9.9 °C 1030.4 hPa ENE 1.6 km/h 4.8 km/h 77% 0 mm
16:19 -6.6 °C -9.8 °C 1030.4 hPa ENE 3.2 km/h 8 km/h 78% 0 mm
16:24 -6.7 °C -9.9 °C 1030.4 hPa ENE 3.2 km/h 9.7 km/h 78% 0 mm
16:29 -6.7 °C -9.9 °C 1030.4 hPa NE 1.6 km/h 4.8 km/h 78% 0 mm
16:34 -6.7 °C -9.9 °C 1030.4 hPa ESE 1.6 km/h 6.4 km/h 78% 0 mm
16:40 -6.7 °C -9.9 °C 1030.4 hPa East 1.6 km/h 6.4 km/h 78% 0 mm
16:49 -6.6 °C -9.8 °C 1030.4 hPa ENE 3.2 km/h 4.8 km/h 78% 0 mm
16:54 -6.6 °C -9.6 °C 1030.4 hPa ENE 3.2 km/h 6.4 km/h 79% 0 mm
16:59 -6.6 °C -9.6 °C 1030.4 hPa NE 3.2 km/h 8 km/h 79% 0 mm
17:04 -6.6 °C -9.6 °C 1030.4 hPa ENE 3.2 km/h 6.4 km/h 79% 0 mm
17:09 -6.5 °C -9.6 °C 1030.4 hPa ENE 3.2 km/h 8 km/h 79% 0 mm
17:19 -6.4 °C -9.5 °C 1030.4 hPa ENE 3.2 km/h 8 km/h 79% 0 mm
17:24 -6.4 °C -9.4 °C 1030 hPa ENE 3.2 km/h 9.7 km/h 79% 0 mm
17:34 -6.3 °C -9.4 °C 1030 hPa ENE 1.6 km/h 6.4 km/h 79% 0 mm
17:39 -6.3 °C -9.4 °C 1030 hPa East 3.2 km/h 8 km/h 79% 0 mm
17:44 -6.3 °C -9.4 °C 1030 hPa East 3.2 km/h 8 km/h 79% 0 mm
17:49 -6.3 °C -9.4 °C 1029.7 hPa East 1.6 km/h 8 km/h 79% 0 mm
17:54 -6.3 °C -9.4 °C 1029.7 hPa East 1.6 km/h 9.7 km/h 79% 0 mm
17:59 -6.3 °C -9.4 °C 1029.7 hPa East 1.6 km/h 9.7 km/h 79% 0 mm
18:04 -6.3 °C -9.4 °C 1029.7 hPa ESE 1.6 km/h 11.3 km/h 79% 0 mm
18:09 -6.3 °C -9.4 °C 1029.7 hPa ESE 3.2 km/h 11.3 km/h 79% 0 mm
18:19 -6.3 °C -9.4 °C 1030 hPa ESE 3.2 km/h 8 km/h 79% 0 mm
18:24 -6.4 °C -9.4 °C 1030 hPa SE 3.2 km/h 8 km/h 79% 0 mm
18:29 -6.3 °C -9.2 °C 1029.7 hPa Calm   9.7 km/h 80% 0 mm
18:34 -6.4 °C -9.3 °C 1029.7 hPa Calm   9.7 km/h 80% 0 mm
18:39 -6.4 °C -9.3 °C 1029.7 hPa SE 4.8 km/h 8 km/h 80% 0 mm
18:49 -6.4 °C -9.3 °C 1029.7 hPa ESE 3.2 km/h 8 km/h 80% 0 mm
18:54 -6.4 °C -9.2 °C 1029.7 hPa East 3.2 km/h 8 km/h 81% 0 mm
18:59 -6.4 °C -9.2 °C 1029.7 hPa East 3.2 km/h 9.7 km/h 81% 0 mm
19:04 -6.5 °C -9.2 °C 1029.7 hPa ESE 3.2 km/h 9.7 km/h 81% 0 mm
19:09 -6.5 °C -9.2 °C 1029.7 hPa East 1.6 km/h 8 km/h 81% 0 mm
19:14 -6.5 °C -9.1 °C 1029.7 hPa East 1.6 km/h 8 km/h 82% 0 mm
19:19 -6.6 °C -9.1 °C 1029.7 hPa ESE 3.2 km/h 8 km/h 82% 0 mm
19:34 -6.5 °C -9.1 °C 1029.7 hPa East 3.2 km/h 6.4 km/h 82% 0 mm
19:39 -6.6 °C -9.1 °C 1029.7 hPa East 3.2 km/h 4.8 km/h 82% 0 mm
19:44 -6.5 °C -9.1 °C 1029.7 hPa ESE 3.2 km/h 6.4 km/h 82% 0 mm
19:59 -6.6 °C -8.9 °C 1029.3 hPa ESE 3.2 km/h 8 km/h 83% 0 mm
20:04 -6.6 °C -8.9 °C 1029.3 hPa ESE 3.2 km/h 6.4 km/h 83% 0 mm
20:09 -6.6 °C -8.9 °C 1029.7 hPa ESE 1.6 km/h 6.4 km/h 83% 0 mm
20:14 -6.6 °C -9 °C 1029.3 hPa ESE 3.2 km/h 6.4 km/h 83% 0 mm
20:19 -6.6 °C -8.9 °C 1029.3 hPa ESE 1.6 km/h 6.4 km/h 83% 0 mm
20:24 -6.6 °C -8.9 °C 1029.3 hPa SE 1.6 km/h 6.4 km/h 83% 0 mm
20:29 -6.6 °C -8.9 °C 1029.3 hPa SSE 4.8 km/h 6.4 km/h 84% 0 mm
20:39 -6.6 °C -8.9 °C 1029.3 hPa Calm   6.4 km/h 84% 0 mm
20:44 -6.7 °C -8.9 °C 1029.3 hPa Calm   4.8 km/h 84% 0 mm
20:49 -6.7 °C -8.8 °C 1029.3 hPa Calm   4.8 km/h 85% 0 mm
20:54 -6.7 °C -8.8 °C 1029.3 hPa SE 4.8 km/h 6.4 km/h 85% 0 mm
20:59 -6.7 °C -8.8 °C 1029.3 hPa SE 1.6 km/h 4.8 km/h 85% 0 mm
21:04 -6.7 °C -8.8 °C 1029.3 hPa SE 1.6 km/h 6.4 km/h 85% 0 mm
21:09 -6.7 °C -8.8 °C 1029.3 hPa SE 1.6 km/h 6.4 km/h 85% 0 mm
21:14 -6.6 °C -8.6 °C 1029.3 hPa SE 3.2 km/h 3.2 km/h 86% 0 mm
21:19 -6.6 °C -8.6 °C 1029.3 hPa SE 1.6 km/h 3.2 km/h 86% 0 mm
21:24 -6.6 °C -8.6 °C 1029.3 hPa SE 1.6 km/h 4.8 km/h 86% 0 mm
21:29 -6.6 °C -8.6 °C 1029.3 hPa Calm   3.2 km/h 86% 0 mm
21:44 -6.6 °C -8.5 °C 1029 hPa Calm     86% 0 mm
21:49 -6.6 °C -8.5 °C 1029.3 hPa SE 1.6 km/h 4.8 km/h 86% 0 mm
21:54 -6.6 °C -8.5 °C 1029 hPa Calm   4.8 km/h 86% 0 mm
21:59 -6.6 °C -8.5 °C 1029 hPa Calm   4.8 km/h 86% 0 mm
22:04 -6.6 °C -8.5 °C 1029 hPa Calm   3.2 km/h 86% 0 mm
22:09 -6.6 °C -8.5 °C 1029 hPa Calm   4.8 km/h 86% 0 mm
22:14 -6.6 °C -8.5 °C 1029 hPa SE 1.6 km/h 4.8 km/h 86% 0 mm
22:19 -6.6 °C -8.6 °C 1029 hPa Calm   3.2 km/h 86% 0 mm
22:24 -6.6 °C -8.6 °C 1028.7 hPa Calm   3.2 km/h 86% 0 mm
22:29 -6.6 °C -8.6 °C 1028.7 hPa Calm   3.2 km/h 86% 0 mm
22:34 -6.7 °C -8.6 °C 1028.7 hPa SE 1.6 km/h 3.2 km/h 86% 0 mm
22:39 -6.7 °C -8.6 °C 1028.7 hPa Calm   3.2 km/h 86% 0 mm
22:44 -6.7 °C -8.6 °C 1028.7 hPa Calm   4.8 km/h 86% 0 mm
22:49 -6.7 °C -8.5 °C 1028.7 hPa SE 1.6 km/h 6.4 km/h 87% 0 mm
22:59 -6.8 °C -8.6 °C 1028.7 hPa Calm   4.8 km/h 87% 0 mm
23:04 -6.9 °C -8.7 °C 1028.3 hPa Calm   1.6 km/h 87% 0 mm
23:09 -7.1 °C -8.8 °C 1028.3 hPa Calm     87% 0 mm
23:14 -7.2 °C -9 °C 1028.3 hPa Calm     87% 0 mm
23:19 -7.3 °C -9.3 °C 1028.3 hPa Calm     86% 0 mm
23:24 -7.4 °C -9.2 °C 1028.3 hPa Calm     87% 0 mm
23:29 -7.3 °C -9.1 °C 1028 hPa Calm     87% 0 mm
23:34 -7.2 °C -9 °C 1028 hPa Calm     87% 0 mm
23:39 -7.2 °C -9 °C 1028 hPa SE 3.2 km/h 3.2 km/h 87% 0 mm
23:44 -7.2 °C -9 °C 1028 hPa SE 3.2 km/h 4.8 km/h 87% 0 mm
23:49 -7.2 °C -8.9 °C 1028 hPa Calm   3.2 km/h 87% 0 mm
23:54 -7.1 °C -8.9 °C 1028 hPa Calm   3.2 km/h 87% 0 mm
23:59 -7.1 °C -8.8 °C 1028 hPa Calm     87% 0 mm
Buffalo, New York, USA
Compliments of Weather Underground - 2.25 mb